createdAt,value
2022-09-01T00:00:15.233Z,100738.20
2022-09-01T00:03:07.453Z,100742.40
2022-09-01T00:05:41.511Z,100741.80
2022-09-01T00:08:18.077Z,100742.80
2022-09-01T00:10:53.042Z,100745.40
2022-09-01T00:13:27.497Z,100740.40
2022-09-01T00:16:04.357Z,100740.00
2022-09-01T00:18:38.479Z,100739.40
2022-09-01T00:21:12.989Z,100741.60
2022-09-01T00:23:47.249Z,100743.40
2022-09-01T00:26:21.487Z,100743.60
2022-09-01T00:28:56.194Z,100741.00
2022-09-01T00:31:30.405Z,100742.40
2022-09-01T00:34:05.266Z,100740.80
2022-09-01T00:36:39.323Z,100741.80
2022-09-01T00:39:13.679Z,100744.40
2022-09-01T00:41:50.465Z,100745.00
2022-09-01T00:44:29.596Z,100740.80
2022-09-01T00:47:06.812Z,100734.20
2022-09-01T00:49:46.586Z,100733.00
2022-09-01T00:52:24.612Z,100729.80
2022-09-01T00:55:04.083Z,100728.40
2022-09-01T00:57:38.558Z,100725.20
2022-09-01T01:00:18.851Z,100724.60
2022-09-01T01:02:56.276Z,100725.80
2022-09-01T01:05:38.626Z,100722.20
2022-09-01T01:08:13.936Z,100721.80
2022-09-01T01:10:48.239Z,100723.40
2022-09-01T01:13:24.323Z,100717.00
2022-09-01T01:15:59.695Z,100723.60
2022-09-01T01:18:34.416Z,100711.80
2022-09-01T01:21:28.982Z,100719.40
2022-09-01T01:24:14.671Z,100718.60
2022-09-01T01:26:48.699Z,100723.40
2022-09-01T01:29:25.360Z,100718.80
2022-09-01T01:32:00.786Z,100725.20
2022-09-01T01:34:35.000Z,100721.60
2022-09-01T01:37:11.048Z,100722.80
2022-09-01T01:39:48.846Z,100724.00
2022-09-01T01:42:25.278Z,100724.40
2022-09-01T01:44:59.617Z,100719.80
2022-09-01T01:47:34.121Z,100718.60
2022-09-01T01:50:11.077Z,100713.60
2022-09-01T01:52:45.818Z,100713.40
2022-09-01T01:55:20.278Z,100714.60
2022-09-01T01:57:54.440Z,100709.20
2022-09-01T02:00:35.209Z,100709.00
2022-09-01T02:03:09.688Z,100711.60
2022-09-01T02:05:44.196Z,100704.60
2022-09-01T02:08:21.088Z,100710.40
2022-09-01T02:10:57.933Z,100713.40
2022-09-01T02:13:32.117Z,100711.00
2022-09-01T02:16:12.156Z,100711.60
2022-09-01T02:18:49.983Z,100714.80
2022-09-01T02:21:27.376Z,100713.60
2022-09-01T02:24:08.585Z,100711.80
2022-09-01T02:26:48.532Z,100713.40
2022-09-01T02:29:26.658Z,100710.40
2022-09-01T02:32:02.081Z,100704.80
2022-09-01T02:34:39.525Z,100709.40
2022-09-01T02:37:13.577Z,100708.80
2022-09-01T02:39:47.676Z,100706.20
2022-09-01T02:42:27.101Z,100703.00
2022-09-01T02:45:02.730Z,100705.40
2022-09-01T02:47:37.294Z,100701.00
2022-09-01T02:50:17.131Z,100702.80
2022-09-01T02:52:52.414Z,100703.00
2022-09-01T02:55:26.748Z,100705.00
2022-09-01T02:58:00.701Z,100701.60
2022-09-01T03:00:39.496Z,100706.40
2022-09-01T03:03:17.649Z,100704.00
2022-09-01T03:05:55.590Z,100702.00
2022-09-01T03:08:34.441Z,100703.80
2022-09-01T03:11:13.168Z,100703.20
2022-09-01T03:13:48.239Z,100706.40
2022-09-01T03:16:24.069Z,100709.40
2022-09-01T03:18:58.726Z,100701.20
2022-09-01T03:21:33.192Z,100700.60
2022-09-01T03:24:09.107Z,100703.60
2022-09-01T03:26:43.732Z,100705.60
2022-09-01T03:29:17.723Z,100703.40
2022-09-01T03:31:51.943Z,100706.20
2022-09-01T03:34:27.030Z,100703.80
2022-09-01T03:37:02.175Z,100709.80
2022-09-01T03:39:36.811Z,100709.40
2022-09-01T03:42:12.698Z,100708.00
2022-09-01T03:44:48.215Z,100707.80
2022-09-01T03:47:22.409Z,100709.00
2022-09-01T03:49:57.052Z,100709.40
2022-09-01T03:52:31.241Z,100711.80
2022-09-01T03:55:05.315Z,100708.60
2022-09-01T03:57:42.712Z,100708.80
2022-09-01T04:00:23.125Z,100714.60
2022-09-01T04:03:00.736Z,100714.40
2022-09-01T04:05:37.803Z,100718.60
2022-09-01T04:08:14.182Z,100718.40
2022-09-01T04:10:54.496Z,100716.80
2022-09-01T04:13:32.589Z,100713.20
2022-09-01T04:16:29.557Z,100719.20
2022-09-01T04:19:16.220Z,100715.40
2022-09-01T04:21:54.356Z,100712.40
2022-09-01T04:24:31.201Z,100711.40
2022-09-01T04:27:07.675Z,100714.60
2022-09-01T04:29:42.016Z,100710.40
2022-09-01T04:32:17.130Z,100713.60
2022-09-01T04:34:57.121Z,100713.00
2022-09-01T04:37:31.313Z,100706.20
2022-09-01T04:40:11.108Z,100713.00
2022-09-01T04:42:45.170Z,100706.80
2022-09-01T04:45:28.095Z,100708.40
2022-09-01T04:48:03.071Z,100710.80
2022-09-01T04:50:37.691Z,100712.80
2022-09-01T04:53:33.173Z,100710.40
2022-09-01T04:56:10.823Z,100710.20
2022-09-01T04:58:49.385Z,100711.00
2022-09-01T05:01:27.027Z,100713.80
2022-09-01T05:04:01.758Z,100713.60
2022-09-01T05:06:49.196Z,100713.60
2022-09-01T05:09:25.247Z,100718.20
2022-09-01T05:12:31.626Z,100722.20
2022-09-01T05:15:09.374Z,100724.60
2022-09-01T05:17:44.137Z,100718.20
2022-09-01T05:20:20.810Z,100716.60
2022-09-01T05:22:56.667Z,100721.40
2022-09-01T05:25:32.431Z,100715.00
2022-09-01T05:28:09.969Z,100715.40
2022-09-01T05:30:45.883Z,100716.60
2022-09-01T05:33:22.095Z,100716.00
2022-09-01T05:36:02.222Z,100712.80
2022-09-01T05:38:36.903Z,100715.40
2022-09-01T05:41:15.134Z,100713.00
2022-09-01T05:43:57.882Z,100715.20
2022-09-01T05:46:34.330Z,100715.20
2022-09-01T05:49:09.512Z,100714.20
2022-09-01T05:51:50.672Z,100721.80
2022-09-01T05:54:29.787Z,100720.60
2022-09-01T05:57:17.756Z,100725.80
2022-09-01T05:59:57.947Z,100722.20
2022-09-01T06:02:33.917Z,100727.80
2022-09-01T06:05:11.123Z,100726.60
2022-09-01T06:07:45.346Z,100731.00
2022-09-01T06:10:20.405Z,100728.20
2022-09-01T06:12:57.002Z,100728.80
2022-09-01T06:15:32.465Z,100727.20
2022-09-01T06:18:07.131Z,100728.20
2022-09-01T06:20:46.930Z,100726.40
2022-09-01T06:23:22.051Z,100728.00
2022-09-01T06:25:56.268Z,100723.60
2022-09-01T06:28:31.457Z,100726.40
2022-09-01T06:31:12.218Z,100727.60
2022-09-01T06:33:46.091Z,100721.80
2022-09-01T06:36:22.082Z,100725.00
2022-09-01T06:38:56.907Z,100730.80
2022-09-01T06:41:31.611Z,100730.80
2022-09-01T06:44:09.935Z,100731.60
2022-09-01T06:46:51.992Z,100726.80
2022-09-01T06:49:32.668Z,100735.40
2022-09-01T06:52:09.656Z,100731.00
2022-09-01T06:54:45.994Z,100733.60
2022-09-01T07:00:21.029Z,100742.80
2022-09-01T07:03:00.466Z,100742.20
2022-09-01T07:06:00.903Z,100737.20
2022-09-01T07:09:37.828Z,100739.20
2022-09-01T07:12:27.885Z,100739.60
2022-09-01T07:18:00.686Z,100742.00
2022-09-01T07:21:02.823Z,100745.20
2022-09-01T07:24:10.312Z,100745.00
2022-09-01T07:26:30.468Z,100743.80
2022-09-01T07:29:07.600Z,100746.40
2022-09-01T07:32:43.466Z,100747.60
2022-09-01T07:34:39.619Z,100755.80
2022-09-01T07:43:22.537Z,100750.40
2022-09-01T07:47:19.600Z,100744.40
2022-09-01T07:50:24.296Z,100747.80
2022-09-01T07:52:44.182Z,100751.40
2022-09-01T07:55:20.324Z,100746.00
2022-09-01T07:57:54.822Z,100751.40
2022-09-01T08:00:31.779Z,100745.20
2022-09-01T08:03:26.041Z,100745.40
2022-09-01T08:06:09.228Z,100744.00
2022-09-01T08:08:47.889Z,100746.80
2022-09-01T08:11:58.075Z,100746.20
2022-09-01T08:14:20.556Z,100750.60
2022-09-01T08:16:55.399Z,100746.80
2022-09-01T08:19:31.546Z,100751.80
2022-09-01T08:22:16.594Z,100750.20
2022-09-01T08:25:02.318Z,100755.60
2022-09-01T08:27:39.315Z,100751.60
2022-09-01T08:30:16.966Z,100756.00
2022-09-01T08:32:51.960Z,100753.40
2022-09-01T08:35:27.004Z,100751.60
2022-09-01T08:38:02.330Z,100749.80
2022-09-01T08:40:37.305Z,100749.00
2022-09-01T08:43:26.194Z,100747.60
2022-09-01T08:46:14.231Z,100753.40
2022-09-01T08:49:24.071Z,100757.40
2022-09-01T08:52:32.445Z,100757.00
2022-09-01T08:55:22.248Z,100756.80
2022-09-01T08:58:02.195Z,100753.00
2022-09-01T09:01:01.268Z,100741.40
2022-09-01T09:03:50.436Z,100740.20
2022-09-01T09:06:34.446Z,100736.40
2022-09-01T09:09:11.371Z,100735.80
2022-09-01T09:12:29.700Z,100735.20
2022-09-01T09:15:19.219Z,100740.80
2022-09-01T09:18:34.423Z,100744.40
2022-09-01T09:21:15.392Z,100741.00
2022-09-01T09:23:58.010Z,100737.60
2022-09-01T09:26:49.086Z,100737.20
2022-09-01T09:29:23.477Z,100730.00
2022-09-01T09:32:44.352Z,100731.40
2022-09-01T09:35:27.542Z,100729.40
2022-09-01T09:38:24.112Z,100730.20
2022-09-01T09:41:19.865Z,100736.80
2022-09-01T09:44:00.243Z,100740.40
2022-09-01T09:46:43.647Z,100737.40
2022-09-01T09:49:36.442Z,100742.00
2022-09-01T09:52:26.089Z,100744.20
2022-09-01T09:55:25.027Z,100740.60
2022-09-01T09:58:10.057Z,100736.60
2022-09-01T10:01:04.007Z,100731.80
2022-09-01T10:03:49.108Z,100725.20
2022-09-01T10:06:39.527Z,100725.80
2022-09-01T10:09:38.495Z,100728.40
2022-09-01T10:12:15.467Z,100729.20
2022-09-01T10:14:57.911Z,100727.00
2022-09-01T10:17:37.432Z,100730.00
2022-09-01T10:20:22.373Z,100726.00
2022-09-01T10:22:57.789Z,100726.60
2022-09-01T10:25:39.941Z,100720.80
2022-09-01T10:28:24.457Z,100727.80
2022-09-01T10:31:00.301Z,100727.00
2022-09-01T10:33:37.075Z,100723.80
2022-09-01T10:36:13.365Z,100718.80
2022-09-01T10:38:53.722Z,100718.40
2022-09-01T10:42:00.503Z,100720.00
2022-09-01T10:44:39.045Z,100716.80
2022-09-01T10:47:30.238Z,100717.40
2022-09-01T10:50:24.722Z,100720.60
2022-09-01T10:53:10.408Z,100720.80
2022-09-01T10:56:18.783Z,100726.20
2022-09-01T10:59:37.366Z,100725.00
2022-09-01T11:02:24.838Z,100720.40
2022-09-01T11:05:27.992Z,100720.80
2022-09-01T11:08:42.378Z,100723.80
2022-09-01T11:11:41.496Z,100723.20
2022-09-01T11:14:26.866Z,100722.00
2022-09-01T11:17:25.373Z,100725.20
2022-09-01T11:20:11.409Z,100734.20
2022-09-01T11:22:59.855Z,100731.20
2022-09-01T11:25:43.967Z,100725.40
2022-09-01T11:28:43.025Z,100726.60
2022-09-01T11:31:40.039Z,100723.60
2022-09-01T11:34:23.743Z,100721.40
2022-09-01T11:37:01.964Z,100721.60
2022-09-01T11:39:44.230Z,100722.00
2022-09-01T11:42:26.711Z,100719.20
2022-09-01T11:45:06.998Z,100720.80
2022-09-01T11:47:46.526Z,100722.20
2022-09-01T11:50:28.136Z,100718.60
2022-09-01T11:53:07.703Z,100713.00
2022-09-01T11:55:46.512Z,100713.20
2022-09-01T11:58:39.448Z,100708.60
2022-09-01T12:01:33.671Z,100704.60
2022-09-01T12:04:27.732Z,100701.00
2022-09-01T12:07:05.644Z,100703.20
2022-09-01T12:09:49.229Z,100710.40
2022-09-01T12:12:39.623Z,100714.60
2022-09-01T12:15:35.277Z,100719.80
2022-09-01T12:18:22.101Z,100716.00
2022-09-01T12:20:59.144Z,100711.80
2022-09-01T12:23:36.401Z,100706.60
2022-09-01T12:26:14.043Z,100698.80
2022-09-01T12:28:49.941Z,100702.60
2022-09-01T12:31:28.247Z,100705.80
2022-09-01T12:34:04.746Z,100700.40
2022-09-01T12:36:39.902Z,100702.80
2022-09-01T12:39:35.593Z,100701.80
2022-09-01T12:42:25.699Z,100702.00
2022-09-01T12:45:02.695Z,100698.60
2022-09-01T12:47:55.275Z,100690.20
2022-09-01T12:50:46.871Z,100684.40
2022-09-01T12:53:32.469Z,100684.00
2022-09-01T12:56:33.147Z,100676.60
2022-09-01T12:59:17.866Z,100683.00
2022-09-01T13:01:54.824Z,100691.00
2022-09-01T13:04:33.925Z,100683.20
2022-09-01T13:07:10.041Z,100690.20
2022-09-01T13:09:44.378Z,100686.20
2022-09-01T13:12:25.156Z,100681.00
2022-09-01T13:14:59.517Z,100684.20
2022-09-01T13:17:33.648Z,100678.40
2022-09-01T13:20:09.394Z,100679.00
2022-09-01T13:22:44.818Z,100678.60
2022-09-01T13:25:24.372Z,100677.40
2022-09-01T13:28:00.545Z,100677.40
2022-09-01T13:30:35.606Z,100677.20
2022-09-01T13:33:20.423Z,100681.60
2022-09-01T13:35:55.844Z,100676.60
2022-09-01T13:38:32.266Z,100692.40
2022-09-01T13:41:06.895Z,100691.60
2022-09-01T13:43:41.500Z,100692.60
2022-09-01T13:46:15.963Z,100693.60
2022-09-01T13:49:42.111Z,100691.40
2022-09-01T13:51:44.371Z,100692.40
2022-09-01T13:54:19.058Z,100686.60
2022-09-01T13:56:53.321Z,100686.80
2022-09-01T13:59:27.490Z,100687.20
2022-09-01T14:02:02.603Z,100684.40
2022-09-01T14:04:36.565Z,100686.80
2022-09-01T14:07:11.937Z,100683.80
2022-09-01T14:09:45.867Z,100682.60
2022-09-01T14:12:20.340Z,100678.40
2022-09-01T14:17:51.187Z,100668.80
2022-09-01T14:20:30.284Z,100670.40
2022-09-01T14:23:08.493Z,100670.20
2022-09-01T14:25:47.994Z,100666.80
2022-09-01T14:28:24.066Z,100665.80
2022-09-01T14:33:34.697Z,100668.00
2022-09-01T14:36:18.094Z,100664.60
2022-09-01T14:38:53.662Z,100664.60
2022-09-01T14:41:29.176Z,100662.20
2022-09-01T14:44:03.772Z,100660.20
2022-09-01T14:46:39.992Z,100662.60
2022-09-01T14:49:21.603Z,100662.80
2022-09-01T14:52:12.557Z,100665.80
2022-09-01T14:54:47.266Z,100667.40
2022-09-01T14:57:31.312Z,100673.80
2022-09-01T15:00:16.709Z,100673.00
2022-09-01T15:02:51.308Z,100672.80
2022-09-01T15:05:26.739Z,100676.80
2022-09-01T15:08:00.876Z,100677.60
2022-09-01T15:10:35.365Z,100676.60
2022-09-01T15:13:09.740Z,100668.80
2022-09-01T15:15:43.983Z,100668.20
2022-09-01T15:18:18.664Z,100662.00
2022-09-01T15:20:54.052Z,100659.20
2022-09-01T15:23:29.610Z,100657.80
2022-09-01T15:26:03.825Z,100652.40
2022-09-01T15:28:38.026Z,100648.80
2022-09-01T15:31:15.731Z,100644.40
2022-09-01T15:33:52.530Z,100646.20
2022-09-01T15:36:30.575Z,100648.40
2022-09-01T15:39:05.333Z,100650.80
2022-09-01T15:41:40.892Z,100645.40
2022-09-01T15:44:15.157Z,100646.60
2022-09-01T15:46:49.532Z,100647.40
2022-09-01T15:49:24.341Z,100645.60
2022-09-01T15:51:59.801Z,100646.20
2022-09-01T15:54:38.140Z,100643.20
2022-09-01T15:57:12.288Z,100644.00
2022-09-01T15:59:46.308Z,100644.00
2022-09-01T16:02:21.487Z,100639.80
2022-09-01T16:04:57.044Z,100638.60
2022-09-01T16:07:30.952Z,100637.80
2022-09-01T16:10:06.403Z,100638.40
2022-09-01T16:12:44.162Z,100641.60
2022-09-01T16:15:23.221Z,100638.40
2022-09-01T16:18:15.581Z,100639.00
2022-09-01T16:21:00.137Z,100646.20
2022-09-01T16:23:43.083Z,100648.00
2022-09-01T16:26:18.093Z,100647.80
2022-09-01T16:28:56.622Z,100645.60
2022-09-01T16:31:34.364Z,100646.00
2022-09-01T16:34:19.170Z,100647.40
2022-09-01T16:37:03.186Z,100646.80
2022-09-01T16:39:47.262Z,100641.80
2022-09-01T16:42:37.794Z,100646.40
2022-09-01T16:45:21.981Z,100646.40
2022-09-01T16:48:10.212Z,100648.40
2022-09-01T16:50:55.390Z,100654.80
2022-09-01T16:53:56.332Z,100654.00
2022-09-01T16:56:42.124Z,100657.20
2022-09-01T16:59:32.413Z,100657.80
2022-09-01T17:02:25.360Z,100659.00
2022-09-01T17:05:09.878Z,100668.60
2022-09-01T17:07:59.122Z,100672.80
2022-09-01T17:10:47.677Z,100681.00
2022-09-01T17:13:29.393Z,100682.60
2022-09-01T17:16:12.063Z,100691.00
2022-09-01T17:18:52.535Z,100690.80
2022-09-01T17:21:32.989Z,100697.00
2022-09-01T17:24:20.924Z,100699.80
2022-09-01T17:26:57.228Z,100707.40
2022-09-01T17:29:41.423Z,100703.20
2022-09-01T17:32:31.861Z,100706.80
2022-09-01T17:35:18.752Z,100710.60
2022-09-01T17:38:10.277Z,100712.80
2022-09-01T17:41:05.860Z,100713.60
2022-09-01T17:43:55.565Z,100718.80
2022-09-01T17:46:42.494Z,100723.20
2022-09-01T17:49:27.334Z,100725.80
2022-09-01T17:52:15.218Z,100732.60
2022-09-01T17:55:00.480Z,100731.40
2022-09-01T17:57:44.798Z,100737.80
2022-09-01T18:00:27.274Z,100741.40
2022-09-01T18:03:32.028Z,100752.20
2022-09-01T18:06:17.051Z,100752.60
2022-09-01T18:08:57.115Z,100753.80
2022-09-01T18:11:48.570Z,100760.20
2022-09-01T18:14:34.667Z,100765.00
2022-09-01T18:17:16.360Z,100762.40
2022-09-01T18:20:06.252Z,100762.40
2022-09-01T18:22:49.491Z,100766.40
2022-09-01T18:25:26.633Z,100767.60
2022-09-01T18:28:01.380Z,100768.00
2022-09-01T18:30:53.472Z,100770.20
2022-09-01T18:33:37.157Z,100776.40
2022-09-01T18:36:34.184Z,100776.00
2022-09-01T18:39:17.777Z,100772.40
2022-09-01T18:42:12.259Z,100769.80
2022-09-01T18:45:05.257Z,100777.40
2022-09-01T18:47:49.220Z,100773.60
2022-09-01T18:50:33.637Z,100779.20
2022-09-01T18:53:26.238Z,100783.80
2022-09-01T18:56:15.600Z,100785.00
2022-09-01T18:59:09.529Z,100790.80
2022-09-01T19:01:53.584Z,100792.40
2022-09-01T19:04:36.022Z,100795.00
2022-09-01T19:07:27.495Z,100795.80
2022-09-01T19:10:18.300Z,100799.00
2022-09-01T19:13:02.866Z,100800.40
2022-09-01T19:15:48.449Z,100800.40
2022-09-01T19:18:33.028Z,100799.00
2022-09-01T19:21:15.079Z,100800.00
2022-09-01T19:23:58.762Z,100800.40
2022-09-01T19:26:42.487Z,100800.60
2022-09-01T19:29:21.897Z,100806.80
2022-09-01T19:32:02.683Z,100804.00
2022-09-01T19:34:46.397Z,100805.00
2022-09-01T19:37:21.487Z,100800.40
2022-09-01T19:39:56.188Z,100802.80
2022-09-01T19:42:39.112Z,100802.60
2022-09-01T19:45:20.772Z,100802.00
2022-09-01T19:48:03.070Z,100804.40
2022-09-01T19:50:47.628Z,100809.80
2022-09-01T19:53:39.748Z,100811.60
2022-09-01T19:56:19.654Z,100807.00
2022-09-01T19:59:05.277Z,100808.60
2022-09-01T20:01:50.088Z,100806.80
2022-09-01T20:04:39.978Z,100809.20
2022-09-01T20:07:28.965Z,100806.60
2022-09-01T20:10:21.837Z,100808.20
2022-09-01T20:13:16.090Z,100811.20
2022-09-01T20:15:57.238Z,100810.60
2022-09-01T20:18:37.749Z,100807.60
2022-09-01T20:21:20.736Z,100803.80
2022-09-01T20:24:03.157Z,100811.60
2022-09-01T20:26:44.700Z,100811.80
2022-09-01T20:29:32.544Z,100808.80
2022-09-01T20:32:08.979Z,100812.40
2022-09-01T20:34:53.038Z,100813.60
2022-09-01T20:37:35.145Z,100812.00
2022-09-01T20:40:14.752Z,100817.00
2022-09-01T20:43:04.073Z,100810.60
2022-09-01T20:45:38.382Z,100817.60
2022-09-01T20:48:19.076Z,100816.20
2022-09-01T20:51:02.223Z,100818.80
2022-09-01T20:54:01.187Z,100821.80
2022-09-01T20:56:46.973Z,100819.40
2022-09-01T20:59:34.594Z,100821.60
2022-09-01T21:02:37.737Z,100820.00
2022-09-01T21:05:30.570Z,100817.20
2022-09-01T21:08:26.883Z,100819.80
2022-09-01T21:11:15.438Z,100816.60
2022-09-01T21:14:05.023Z,100813.20
2022-09-01T21:16:53.227Z,100814.80
2022-09-01T21:19:40.801Z,100817.20
2022-09-01T21:22:21.783Z,100815.80
2022-09-01T21:24:56.923Z,100819.80
2022-09-01T21:27:38.669Z,100820.00
2022-09-01T21:30:17.120Z,100816.20
2022-09-01T21:32:53.458Z,100818.80
2022-09-01T21:35:28.190Z,100820.60
2022-09-01T21:38:02.630Z,100825.40
2022-09-01T21:40:38.185Z,100828.20
2022-09-01T21:43:18.122Z,100822.80
2022-09-01T21:45:52.942Z,100822.60
2022-09-01T21:48:27.995Z,100820.40
2022-09-01T21:51:04.638Z,100814.80
2022-09-01T21:53:39.280Z,100813.00
2022-09-01T21:56:13.463Z,100808.80
2022-09-01T21:58:49.977Z,100807.20
2022-09-01T22:01:26.149Z,100810.40
2022-09-01T22:04:00.729Z,100808.00
2022-09-01T22:06:36.105Z,100807.60
2022-09-01T22:09:21.255Z,100807.00
2022-09-01T22:11:56.211Z,100811.80
2022-09-01T22:14:30.563Z,100814.60
2022-09-01T22:17:05.082Z,100807.80
2022-09-01T22:19:39.368Z,100804.20
2022-09-01T22:22:13.604Z,100805.20
2022-09-01T22:24:48.152Z,100807.80
2022-09-01T22:27:23.666Z,100804.20
2022-09-01T22:29:57.539Z,100802.20
2022-09-01T22:32:34.954Z,100803.80
2022-09-01T22:35:12.542Z,100799.80
2022-09-01T22:37:47.576Z,100794.80
2022-09-01T22:40:22.661Z,100793.20
2022-09-01T22:42:56.710Z,100792.80
2022-09-01T22:45:31.879Z,100796.80
2022-09-01T22:48:06.751Z,100796.80
2022-09-01T22:50:44.377Z,100798.20
2022-09-01T22:53:20.899Z,100799.40
2022-09-01T22:55:55.882Z,100796.60
2022-09-01T22:58:30.404Z,100794.00
2022-09-01T23:01:04.548Z,100790.80
2022-09-01T23:03:39.186Z,100791.40
2022-09-01T23:06:21.906Z,100788.60
2022-09-01T23:09:04.615Z,100789.80
2022-09-01T23:11:39.327Z,100788.00
2022-09-01T23:14:13.990Z,100786.60
2022-09-01T23:16:51.298Z,100790.20
2022-09-01T23:19:26.986Z,100787.40
2022-09-01T23:22:02.184Z,100787.60
2022-09-01T23:24:36.379Z,100782.00
2022-09-01T23:27:10.507Z,100785.80
2022-09-01T23:29:44.566Z,100783.20
2022-09-01T23:32:18.622Z,100780.40
2022-09-01T23:34:53.687Z,100786.20
2022-09-01T23:37:28.461Z,100781.00
2022-09-01T23:40:03.210Z,100786.60
2022-09-01T23:42:37.430Z,100784.40
2022-09-01T23:45:13.816Z,100778.60
2022-09-01T23:47:47.578Z,100782.20
2022-09-01T23:50:21.888Z,100777.60
2022-09-01T23:52:56.014Z,100774.60
2022-09-01T23:55:29.952Z,100773.00
2022-09-01T23:58:04.230Z,100766.40
